createdAt,value
2022-10-11T00:01:43.350Z,95760.81
2022-10-11T00:04:24.323Z,95757.84
2022-10-11T00:07:04.412Z,95752.75
2022-10-11T00:09:43.973Z,95760.94
2022-10-11T00:12:25.777Z,95759.94
2022-10-11T00:15:09.070Z,95764.97
2022-10-11T00:17:49.915Z,95762.00
2022-10-11T00:20:30.109Z,95750.50
2022-10-11T00:23:25.401Z,95762.13
2022-10-11T00:26:08.763Z,95759.72
2022-10-11T00:28:48.789Z,95766.63
2022-10-11T00:31:32.081Z,95758.94
2022-10-11T00:34:17.766Z,95764.97
2022-10-11T00:36:58.034Z,95765.53
2022-10-11T00:39:37.825Z,95765.59
2022-10-11T00:42:18.645Z,95764.03
2022-10-11T00:45:32.995Z,95764.81
2022-10-11T00:48:19.696Z,95765.13
2022-10-11T00:51:03.994Z,95765.69
2022-10-11T00:53:45.137Z,95767.59
2022-10-11T00:56:31.807Z,95764.47
2022-10-11T00:59:18.707Z,95766.69
2022-10-11T01:01:58.665Z,95767.22
2022-10-11T01:04:38.528Z,95768.06
2022-10-11T01:07:20.915Z,95765.28
2022-10-11T01:10:03.502Z,95749.22
2022-10-11T01:12:56.093Z,95748.88
2022-10-11T01:15:43.477Z,95754.34
2022-10-11T01:18:31.996Z,95744.78
2022-10-11T01:21:26.655Z,95743.41
2022-10-11T01:24:44.848Z,95731.66
2022-10-11T01:27:43.821Z,95728.78
2022-10-11T01:30:30.181Z,95729.28
2022-10-11T01:33:19.631Z,95740.13
2022-10-11T01:36:08.154Z,95722.63
2022-10-11T01:38:55.093Z,95712.69
2022-10-11T01:41:39.460Z,95708.78
2022-10-11T01:44:21.237Z,95702.47
2022-10-11T01:47:02.419Z,95706.09
2022-10-11T01:49:42.238Z,95725.84
2022-10-11T01:52:22.401Z,95718.13
2022-10-11T01:55:17.545Z,95722.56
2022-10-11T01:58:18.924Z,95721.44
2022-10-11T02:01:09.617Z,95729.31
2022-10-11T02:03:53.731Z,95724.38
2022-10-11T02:06:41.009Z,95728.81
2022-10-11T02:09:27.802Z,95724.97
2022-10-11T02:12:13.273Z,95725.44
2022-10-11T02:14:56.961Z,95728.47
2022-10-11T02:17:41.631Z,95730.72
2022-10-11T02:20:26.098Z,95725.34
2022-10-11T02:23:11.771Z,95733.38
2022-10-11T02:25:55.478Z,95737.63
2022-10-11T02:28:39.347Z,95733.00
2022-10-11T02:31:21.904Z,95736.84
2022-10-11T02:34:13.280Z,95737.53
2022-10-11T02:37:00.449Z,95741.09
2022-10-11T02:39:46.893Z,95741.34
2022-10-11T02:42:30.895Z,95739.75
2022-10-11T02:45:18.077Z,95735.06
2022-10-11T02:47:59.994Z,95743.56
2022-10-11T02:50:41.586Z,95737.47
2022-10-11T02:53:22.787Z,95735.81
2022-10-11T02:56:03.523Z,95743.47
2022-10-11T02:58:44.606Z,95744.84
2022-10-11T03:01:24.431Z,95745.66
2022-10-11T03:04:04.151Z,95749.22
2022-10-11T03:06:44.046Z,95750.97
2022-10-11T03:09:24.316Z,95753.53
2022-10-11T03:12:05.497Z,95759.66
2022-10-11T03:14:45.051Z,95756.72
2022-10-11T03:17:36.298Z,95756.66
2022-10-11T03:20:17.816Z,95760.22
2022-10-11T03:22:58.779Z,95761.03
2022-10-11T03:25:38.864Z,95764.13
2022-10-11T03:28:18.461Z,95767.59
2022-10-11T03:30:59.079Z,95774.59
2022-10-11T03:33:39.658Z,95772.34
2022-10-11T03:36:19.445Z,95774.13
2022-10-11T03:39:00.581Z,95783.75
2022-10-11T03:41:40.501Z,95783.28
2022-10-11T03:44:20.438Z,95790.63
2022-10-11T03:47:02.282Z,95784.31
2022-10-11T03:49:43.871Z,95787.19
2022-10-11T03:52:24.643Z,95782.22
2022-10-11T03:55:04.870Z,95786.94
2022-10-11T03:57:45.854Z,95782.22
2022-10-11T04:00:25.718Z,95785.66
2022-10-11T04:03:05.711Z,95785.50
2022-10-11T04:05:45.228Z,95795.25
2022-10-11T04:08:44.271Z,95790.66
2022-10-11T04:11:24.115Z,95787.75
2022-10-11T04:14:03.893Z,95792.16
2022-10-11T04:16:45.232Z,95796.34
2022-10-11T04:19:27.138Z,95789.75
2022-10-11T04:22:08.326Z,95790.00
2022-10-11T04:24:47.865Z,95794.72
2022-10-11T04:27:30.187Z,95792.81
2022-10-11T04:30:12.718Z,95796.22
2022-10-11T04:32:54.740Z,95799.47
2022-10-11T04:35:35.124Z,95804.03
2022-10-11T04:38:15.067Z,95804.34
2022-10-11T04:40:54.705Z,95793.38
2022-10-11T04:43:34.534Z,95800.34
2022-10-11T04:46:15.928Z,95799.63
2022-10-11T04:48:56.155Z,95797.81
2022-10-11T04:51:37.195Z,95800.78
2022-10-11T04:54:18.726Z,95800.47
2022-10-11T04:56:58.278Z,95804.78
2022-10-11T04:59:38.099Z,95804.31
2022-10-11T05:02:18.946Z,95803.34
2022-10-11T05:04:59.820Z,95804.41
2022-10-11T05:07:40.705Z,95802.97
2022-10-11T05:10:20.644Z,95806.16
2022-10-11T05:13:00.322Z,95804.66
2022-10-11T05:15:40.227Z,95804.69
2022-10-11T05:18:20.952Z,95805.66
2022-10-11T05:21:02.528Z,95807.22
2022-10-11T05:23:43.101Z,95810.16
2022-10-11T05:26:23.767Z,95810.59
2022-10-11T05:29:04.426Z,95812.59
2022-10-11T05:31:45.493Z,95816.28
2022-10-11T05:34:25.509Z,95809.84
2022-10-11T05:37:05.085Z,95821.88
2022-10-11T05:39:45.021Z,95823.06
2022-10-11T05:42:26.585Z,95816.34
2022-10-11T05:45:08.688Z,95823.50
2022-10-11T05:47:49.014Z,95824.16
2022-10-11T05:50:28.922Z,95830.19
2022-10-11T05:53:08.694Z,95834.84
2022-10-11T05:55:48.409Z,95834.53
2022-10-11T05:58:28.706Z,95841.75
2022-10-11T06:01:18.063Z,95843.66
2022-10-11T06:03:59.072Z,95841.59
2022-10-11T06:06:38.866Z,95842.72
2022-10-11T06:09:18.790Z,95842.00
2022-10-11T06:11:58.862Z,95837.06
2022-10-11T06:14:53.638Z,95843.50
2022-10-11T06:17:53.862Z,95839.59
2022-10-11T06:20:48.482Z,95834.47
2022-10-11T06:23:56.845Z,95840.34
2022-10-11T06:27:09.590Z,95845.84
2022-10-11T06:30:08.290Z,95853.38
2022-10-11T06:33:20.444Z,95856.28
2022-10-11T06:36:17.822Z,95861.78
2022-10-11T06:39:11.967Z,95868.13
2022-10-11T06:42:14.685Z,95872.03
2022-10-11T06:45:21.297Z,95860.81
2022-10-11T06:48:18.326Z,95871.31
2022-10-11T06:51:12.474Z,95874.41
2022-10-11T06:54:18.404Z,95873.22
2022-10-11T06:57:16.944Z,95876.72
2022-10-11T07:00:15.893Z,95875.56
2022-10-11T07:03:23.405Z,95875.75
2022-10-11T07:06:21.540Z,95875.59
2022-10-11T07:09:24.837Z,95877.31
2022-10-11T07:12:23.106Z,95878.97
2022-10-11T07:15:32.082Z,95885.00
2022-10-11T07:18:29.603Z,95886.59
2022-10-11T07:21:28.489Z,95883.66
2022-10-11T07:24:25.846Z,95893.25
2022-10-11T07:27:23.688Z,95889.66
2022-10-11T07:30:18.807Z,95893.50
2022-10-11T07:33:15.538Z,95890.28
2022-10-11T07:36:14.182Z,95895.78
2022-10-11T07:39:09.869Z,95891.09
2022-10-11T07:42:23.154Z,95887.97
2022-10-11T07:45:24.139Z,95892.44
2022-10-11T07:48:30.098Z,95890.13
2022-10-11T07:51:27.422Z,95891.28
2022-10-11T07:54:27.655Z,95889.28
2022-10-11T07:57:40.977Z,95900.94
2022-10-11T08:00:46.799Z,95894.19
2022-10-11T08:03:44.814Z,95902.06
2022-10-11T08:06:38.558Z,95894.13
2022-10-11T08:09:34.107Z,95906.63
2022-10-11T08:12:28.500Z,95912.16
2022-10-11T08:15:22.811Z,95908.13
2022-10-11T08:18:35.402Z,95904.72
2022-10-11T08:21:35.609Z,95903.19
2022-10-11T08:24:15.008Z,95917.66
2022-10-11T08:27:10.409Z,95910.94
2022-10-11T08:30:08.834Z,95911.88
2022-10-11T08:33:14.958Z,95917.47
2022-10-11T08:36:14.083Z,95911.34
2022-10-11T08:39:12.916Z,95919.22
2022-10-11T08:42:18.147Z,95921.91
2022-10-11T08:45:31.967Z,95912.19
2022-10-11T08:48:56.602Z,95925.91
2022-10-11T08:52:02.634Z,95925.91
2022-10-11T08:54:38.316Z,95925.22
2022-10-11T08:57:08.183Z,95914.53
2022-10-11T08:59:42.492Z,95922.34
2022-10-11T09:02:22.713Z,95928.97
2022-10-11T09:04:53.313Z,95926.97
2022-10-11T09:07:35.484Z,95916.97
2022-10-11T09:10:21.460Z,95916.91
2022-10-11T09:12:59.554Z,95918.06
2022-10-11T09:15:38.042Z,95912.91
2022-10-11T09:18:34.253Z,95913.31
2022-10-11T09:21:14.967Z,95913.91
2022-10-11T09:23:58.637Z,95910.16
2022-10-11T09:26:29.919Z,95907.78
2022-10-11T09:29:07.191Z,95906.75
2022-10-11T09:31:35.307Z,95907.59
2022-10-11T09:34:12.116Z,95905.69
2022-10-11T09:36:44.568Z,95901.97
2022-10-11T09:39:28.262Z,95902.53
2022-10-11T09:42:01.913Z,95904.16
2022-10-11T09:44:36.798Z,95901.75
2022-10-11T09:47:06.137Z,95903.34
2022-10-11T09:49:38.613Z,95899.09
2022-10-11T09:52:12.502Z,95894.25
2022-10-11T09:54:44.080Z,95897.47
2022-10-11T09:57:23.877Z,95897.47
2022-10-11T10:00:04.921Z,95889.13
2022-10-11T10:02:44.144Z,95899.31
2022-10-11T10:05:19.396Z,95897.91
2022-10-11T10:08:23.040Z,95908.44
2022-10-11T10:11:01.724Z,95906.28
2022-10-11T10:13:38.543Z,95902.75
2022-10-11T10:16:11.620Z,95899.28
2022-10-11T10:18:45.232Z,95899.56
2022-10-11T10:21:16.896Z,95901.44
2022-10-11T10:23:45.507Z,95901.72
2022-10-11T10:26:18.467Z,95893.72
2022-10-11T10:29:03.764Z,95902.25
2022-10-11T10:31:55.264Z,95898.19
2022-10-11T10:34:30.787Z,95902.63
2022-10-11T10:37:03.559Z,95899.66
2022-10-11T10:39:38.276Z,95904.25
2022-10-11T10:42:14.890Z,95905.91
2022-10-11T10:44:43.326Z,95907.41
2022-10-11T10:47:20.753Z,95903.66
2022-10-11T10:49:58.397Z,95904.91
2022-10-11T10:53:02.452Z,95900.31
2022-10-11T10:55:35.967Z,95896.44
2022-10-11T10:58:18.746Z,95903.19
2022-10-11T11:00:49.956Z,95891.34
2022-10-11T11:03:25.209Z,95891.38
2022-10-11T11:06:01.769Z,95894.69
2022-10-11T11:08:56.681Z,95885.59
2022-10-11T11:11:36.034Z,95875.81
2022-10-11T11:14:15.334Z,95883.53
2022-10-11T11:16:50.151Z,95879.94
2022-10-11T11:19:28.596Z,95876.06
2022-10-11T11:22:01.973Z,95882.22
2022-10-11T11:24:43.637Z,95877.97
2022-10-11T11:27:20.568Z,95879.88
2022-10-11T11:29:57.414Z,95874.25
2022-10-11T11:32:35.401Z,95868.75
2022-10-11T11:35:10.660Z,95868.09
2022-10-11T11:37:41.624Z,95858.25
2022-10-11T11:40:17.615Z,95856.50
2022-10-11T11:42:50.150Z,95860.94
2022-10-11T11:45:24.727Z,95862.06
2022-10-11T11:47:57.855Z,95867.09
2022-10-11T11:50:28.673Z,95872.25
2022-10-11T11:53:01.859Z,95867.38
2022-10-11T11:55:36.776Z,95867.06
2022-10-11T11:58:18.421Z,95861.59
2022-10-11T12:00:59.349Z,95871.69
2022-10-11T12:03:35.128Z,95862.59
2022-10-11T12:06:21.193Z,95867.81
2022-10-11T12:09:01.707Z,95866.19
2022-10-11T12:11:39.599Z,95869.75
2022-10-11T12:14:19.238Z,95870.44
2022-10-11T12:17:11.737Z,95864.78
2022-10-11T12:19:42.081Z,95862.50
2022-10-11T12:22:38.827Z,95859.53
2022-10-11T12:25:33.213Z,95855.91
2022-10-11T12:28:02.924Z,95854.50
2022-10-11T12:30:54.541Z,95853.00
2022-10-11T12:33:26.023Z,95850.19
2022-10-11T12:36:04.123Z,95849.13
2022-10-11T12:38:37.813Z,95854.22
2022-10-11T12:41:38.052Z,95849.84
2022-10-11T12:44:15.354Z,95844.41
2022-10-11T12:47:01.824Z,95837.31
2022-10-11T12:49:47.428Z,95828.94
2022-10-11T12:52:33.614Z,95832.50
2022-10-11T12:55:20.013Z,95836.81
2022-10-11T12:58:19.115Z,95826.53
2022-10-11T13:01:17.955Z,95834.03
2022-10-11T13:03:50.903Z,95830.56
2022-10-11T13:06:24.942Z,95827.63
2022-10-11T13:08:57.403Z,95826.50
2022-10-11T13:11:31.793Z,95830.78
2022-10-11T13:14:06.487Z,95828.84
2022-10-11T13:16:58.484Z,95826.94
2022-10-11T13:19:27.729Z,95826.69
2022-10-11T13:21:59.704Z,95824.25
2022-10-11T13:24:35.630Z,95816.75
2022-10-11T13:27:04.884Z,95821.38
2022-10-11T13:29:36.067Z,95816.69
2022-10-11T13:32:07.940Z,95818.69
2022-10-11T13:34:40.815Z,95819.94
2022-10-11T13:37:17.475Z,95820.13
2022-10-11T13:39:46.734Z,95813.06
2022-10-11T13:42:17.356Z,95825.97
2022-10-11T13:44:48.167Z,95818.41
2022-10-11T13:47:22.877Z,95823.50
2022-10-11T13:50:01.761Z,95827.28
2022-10-11T13:52:31.185Z,95826.75
2022-10-11T13:55:13.580Z,95831.91
2022-10-11T13:57:44.871Z,95834.34
2022-10-11T14:00:25.936Z,95833.69
2022-10-11T14:02:58.139Z,95828.84
2022-10-11T14:05:32.996Z,95831.00
2022-10-11T14:08:03.713Z,95837.38
2022-10-11T14:10:32.181Z,95835.72
2022-10-11T14:13:03.817Z,95839.75
2022-10-11T14:15:34.517Z,95844.53
2022-10-11T14:18:23.487Z,95844.56
2022-10-11T14:20:53.270Z,95844.31
2022-10-11T14:23:21.396Z,95842.44
2022-10-11T14:25:49.403Z,95837.38
2022-10-11T14:28:17.537Z,95825.09
2022-10-11T14:30:45.586Z,95828.03
2022-10-11T14:33:13.846Z,95823.63
2022-10-11T14:35:43.290Z,95813.16
2022-10-11T14:38:13.068Z,95816.44
2022-10-11T14:40:41.102Z,95813.31
2022-10-11T14:43:09.088Z,95811.34
2022-10-11T14:45:37.484Z,95820.34
2022-10-11T14:48:06.141Z,95817.72
2022-10-11T14:50:40.523Z,95825.13
2022-10-11T14:53:09.952Z,95813.13
2022-10-11T14:55:40.808Z,95821.16
2022-10-11T14:58:12.325Z,95825.28
2022-10-11T15:00:40.694Z,95824.72
2022-10-11T15:03:09.602Z,95819.59
2022-10-11T15:05:38.762Z,95814.81
2022-10-11T15:08:08.034Z,95819.84
2022-10-11T15:10:38.264Z,95820.16
2022-10-11T15:13:08.858Z,95822.97
2022-10-11T15:15:40.899Z,95823.44
2022-10-11T15:18:13.208Z,95823.00
2022-10-11T15:20:43.049Z,95826.28
2022-10-11T15:23:12.146Z,95820.75
2022-10-11T15:25:42.104Z,95826.38
2022-10-11T15:28:23.535Z,95829.25
2022-10-11T15:30:51.816Z,95830.34
2022-10-11T15:33:19.849Z,95829.00
2022-10-11T15:35:48.047Z,95828.75
2022-10-11T15:38:18.672Z,95826.31
2022-10-11T15:40:48.847Z,95835.22
2022-10-11T15:43:23.509Z,95829.66
2022-10-11T15:45:52.890Z,95837.41
2022-10-11T15:48:22.839Z,95836.31
2022-10-11T15:50:51.595Z,95836.50
2022-10-11T15:53:22.664Z,95846.06
2022-10-11T15:55:52.748Z,95839.94
2022-10-11T15:58:24.059Z,95841.50
2022-10-11T16:00:55.846Z,95837.69
2022-10-11T16:03:27.333Z,95841.06
2022-10-11T16:05:57.332Z,95840.31
2022-10-11T16:08:26.992Z,95839.63
2022-10-11T16:10:55.571Z,95844.84
2022-10-11T16:13:24.913Z,95840.00
2022-10-11T16:15:53.252Z,95845.59
2022-10-11T16:18:22.299Z,95837.00
2022-10-11T16:20:52.538Z,95841.41
2022-10-11T16:23:22.279Z,95848.56
2022-10-11T16:25:58.040Z,95840.25
2022-10-11T16:28:28.850Z,95849.50
2022-10-11T16:30:57.717Z,95848.91
2022-10-11T16:33:26.715Z,95849.88
2022-10-11T16:36:15.465Z,95847.09
2022-10-11T16:38:44.114Z,95842.53
2022-10-11T16:41:12.304Z,95843.47
2022-10-11T16:43:41.653Z,95851.13
2022-10-11T16:46:09.699Z,95845.75
2022-10-11T16:48:37.823Z,95851.75
2022-10-11T16:51:07.189Z,95858.84
2022-10-11T16:53:35.716Z,95857.44
2022-10-11T16:56:08.242Z,95855.28
2022-10-11T16:58:37.549Z,95863.75
2022-10-11T17:01:11.135Z,95867.09
2022-10-11T17:03:39.639Z,95866.97
2022-10-11T17:06:08.998Z,95871.41
2022-10-11T17:08:37.717Z,95867.38
2022-10-11T17:11:06.246Z,95864.91
2022-10-11T17:13:36.148Z,95875.22
2022-10-11T17:16:05.276Z,95864.78
2022-10-11T17:18:34.990Z,95874.88
2022-10-11T17:21:05.301Z,95868.13
2022-10-11T17:23:34.791Z,95877.19
2022-10-11T17:26:08.618Z,95875.09
2022-10-11T17:28:39.466Z,95876.47
2022-10-11T17:31:08.935Z,95878.63
2022-10-11T17:33:38.966Z,95872.09
2022-10-11T17:36:22.197Z,95869.75
2022-10-11T17:38:51.435Z,95868.38
2022-10-11T17:41:20.010Z,95869.50
2022-10-11T17:43:48.300Z,95865.16
2022-10-11T17:46:18.196Z,95874.00
2022-10-11T17:48:48.267Z,95869.00
2022-10-11T17:51:19.882Z,95863.44
2022-10-11T17:53:50.741Z,95862.16
2022-10-11T17:56:26.746Z,95856.03
2022-10-11T17:58:58.015Z,95861.28
2022-10-11T18:01:28.605Z,95859.75
2022-10-11T18:04:00.461Z,95862.97
2022-10-11T18:06:30.777Z,95860.53
2022-10-11T18:09:02.449Z,95851.16
2022-10-11T18:11:31.832Z,95860.31
2022-10-11T18:13:59.907Z,95858.63
2022-10-11T18:16:29.702Z,95857.75
2022-10-11T18:18:59.791Z,95862.19
2022-10-11T18:21:33.985Z,95856.00
2022-10-11T18:24:03.745Z,95859.59
2022-10-11T18:26:31.856Z,95852.94
2022-10-11T18:29:01.599Z,95865.09
2022-10-11T18:31:31.899Z,95851.50
2022-10-11T18:34:01.367Z,95854.97
2022-10-11T18:36:31.546Z,95857.56
2022-10-11T18:39:01.395Z,95862.88
2022-10-11T18:41:32.133Z,95863.72
2022-10-11T18:44:02.840Z,95857.06
2022-10-11T18:46:31.747Z,95856.59
2022-10-11T18:49:03.176Z,95859.47
2022-10-11T18:51:32.983Z,95860.28
2022-10-11T18:54:01.910Z,95854.97
2022-10-11T18:56:31.571Z,95855.94
2022-10-11T18:59:00.202Z,95861.59
2022-10-11T19:01:30.052Z,95866.56
2022-10-11T19:04:00.164Z,95860.16
2022-10-11T19:06:31.932Z,95858.88
2022-10-11T19:09:01.978Z,95864.19
2022-10-11T19:11:30.050Z,95852.00
2022-10-11T19:13:59.314Z,95865.19
2022-10-11T19:16:29.869Z,95862.81
2022-10-11T19:18:58.715Z,95866.72
2022-10-11T19:21:27.411Z,95858.38
2022-10-11T19:23:57.810Z,95866.19
2022-10-11T19:26:28.899Z,95863.00
2022-10-11T19:28:58.251Z,95861.13
2022-10-11T19:31:27.218Z,95864.81
2022-10-11T19:33:58.022Z,95870.03
2022-10-11T19:36:26.717Z,95866.31
2022-10-11T19:38:56.806Z,95862.06
2022-10-11T19:41:27.716Z,95865.28
2022-10-11T19:43:58.061Z,95857.31
2022-10-11T19:46:44.875Z,95869.59
2022-10-11T19:49:17.579Z,95858.97
2022-10-11T19:51:45.877Z,95859.28
2022-10-11T19:54:16.024Z,95861.34
2022-10-11T19:56:45.917Z,95854.66
2022-10-11T19:59:14.616Z,95848.09
2022-10-11T20:01:45.505Z,95853.53
2022-10-11T20:04:39.693Z,95847.13
2022-10-11T20:07:05.046Z,95850.75
2022-10-11T20:09:33.897Z,95860.56
2022-10-11T20:12:03.237Z,95849.69
2022-10-11T20:14:31.282Z,95847.84
2022-10-11T20:16:59.286Z,95844.06
2022-10-11T20:19:31.328Z,95844.66
2022-10-11T20:22:00.291Z,95842.88
2022-10-11T20:24:32.695Z,95850.84
2022-10-11T20:27:03.946Z,95854.53
2022-10-11T20:29:32.226Z,95864.03
2022-10-11T20:32:00.250Z,95866.38
2022-10-11T20:34:28.841Z,95866.59
2022-10-11T20:36:56.853Z,95867.50
2022-10-11T20:39:25.433Z,95868.50
2022-10-11T20:41:53.746Z,95873.28
2022-10-11T20:44:23.235Z,95872.47
2022-10-11T20:46:51.427Z,95869.56
2022-10-11T20:49:20.743Z,95866.13
2022-10-11T20:51:49.492Z,95867.88
2022-10-11T20:54:17.814Z,95874.00
2022-10-11T20:56:46.279Z,95871.00
2022-10-11T20:59:14.403Z,95870.22
2022-10-11T21:01:45.183Z,95882.91
2022-10-11T21:04:18.728Z,95867.22
2022-10-11T21:06:47.564Z,95875.94
2022-10-11T21:09:16.872Z,95875.13
2022-10-11T21:11:45.252Z,95861.63
2022-10-11T21:14:13.712Z,95861.06
2022-10-11T21:16:43.227Z,95869.25
2022-10-11T21:19:14.469Z,95863.97
2022-10-11T21:21:44.560Z,95866.59
2022-10-11T21:24:14.229Z,95865.25
2022-10-11T21:26:42.330Z,95867.06
2022-10-11T21:29:10.569Z,95868.94
2022-10-11T21:31:38.709Z,95864.94
2022-10-11T21:34:08.457Z,95864.94
2022-10-11T21:36:36.757Z,95862.75
2022-10-11T21:39:04.905Z,95860.78
2022-10-11T21:41:34.035Z,95855.41
2022-10-11T21:44:02.654Z,95867.31
2022-10-11T21:47:01.127Z,95861.09
2022-10-11T21:49:21.906Z,95855.16
2022-10-11T21:51:50.185Z,95862.06
2022-10-11T21:54:18.805Z,95858.44
2022-10-11T21:56:46.896Z,95857.78
2022-10-11T21:59:15.073Z,95851.59
2022-10-11T22:01:44.506Z,95852.31
2022-10-11T22:04:13.017Z,95847.47
2022-10-11T22:06:42.481Z,95850.03
2022-10-11T22:09:10.692Z,95849.13
2022-10-11T22:11:38.818Z,95852.00
2022-10-11T22:14:07.045Z,95851.91
2022-10-11T22:16:36.190Z,95844.88
2022-10-11T22:19:04.400Z,95846.41
2022-10-11T22:21:32.526Z,95849.50
2022-10-11T22:24:01.971Z,95848.94
2022-10-11T22:26:32.232Z,95846.75
2022-10-11T22:29:00.748Z,95845.06
2022-10-11T22:31:30.127Z,95852.69
2022-10-11T22:34:01.200Z,95841.41
2022-10-11T22:36:30.941Z,95850.63
2022-10-11T22:38:59.270Z,95849.25
2022-10-11T22:41:28.825Z,95848.69
2022-10-11T22:43:58.096Z,95848.00
2022-10-11T22:46:26.347Z,95846.63
2022-10-11T22:48:54.463Z,95842.00
2022-10-11T22:51:22.807Z,95848.69
2022-10-11T22:53:54.318Z,95841.47
2022-10-11T22:56:23.304Z,95843.53
2022-10-11T22:58:53.555Z,95836.28
2022-10-11T23:01:21.681Z,95843.06
2022-10-11T23:03:50.629Z,95841.94
2022-10-11T23:06:19.009Z,95838.94
2022-10-11T23:08:47.141Z,95840.00
2022-10-11T23:11:15.200Z,95851.16
2022-10-11T23:13:43.242Z,95850.81
2022-10-11T23:16:14.137Z,95847.81
2022-10-11T23:18:42.705Z,95843.22
2022-10-11T23:21:11.142Z,95843.66
2022-10-11T23:23:39.841Z,95848.16
2022-10-11T23:26:11.804Z,95845.28
2022-10-11T23:28:40.018Z,95846.09
2022-10-11T23:31:10.310Z,95849.88
2022-10-11T23:33:40.295Z,95842.88
2022-10-11T23:36:15.301Z,95847.00
2022-10-11T23:38:43.299Z,95851.63
2022-10-11T23:41:11.408Z,95846.75
2022-10-11T23:43:39.441Z,95845.81
2022-10-11T23:46:07.527Z,95844.91
2022-10-11T23:48:35.628Z,95845.03
2022-10-11T23:51:05.167Z,95845.34
2022-10-11T23:53:33.430Z,95840.38
2022-10-11T23:56:01.536Z,95845.78
2022-10-11T23:58:30.350Z,95839.22
